首页
METAR-TAF:

METAR-TAF

机场 :

明尼阿波利斯-圣保罗国际机场

明尼阿波利斯, 明尼蘇達州, 美国

纬度: 44-52-59N, 经度: 093-13-44W, 海拔: 256米

当前天气观测

该预报发布于24分钟前的16:53 UTC
风速6节,风向北转东北
温度 -9°C
湿度 57%
气压 1028 hPa
能見度: 16.1公里
少量云层高于25000英尺

METAR: KMSP 161653Z 03006KT 10SM FEW250 M09/M16 A3035 RMK AO2 SLP294 T10941156

时间: 11:17 (17:17 UTC)

预报

该预报发布于2小时和16分钟前的15:01 UTC
预报有效从16日的 15点(UTC)到 17日的 18点(UTC)
风速9节,风向北转东北
能見度: 10公里
少量云层高于25000英尺
从 16日的 1800点(UTC)
风速4节,风向东转东北
能見度: 10公里
散云层高于25000英尺
从 17日的 0700点(UTC)
风速3节,风向东转东南
能見度: 10公里
多云层高于9000英尺
从 17日的 1400点(UTC)
风速3节,风向南转南东
能見度: 10公里
散云层高于2500英尺
阴天层高于4000英尺

TAF: KMSP 161501Z 1615/1718 02009KT P6SM FEW250 FM161800 06004KT P6SM SCT250 FM170700 11003KT P6SM BKN090 FM171400 15003KT P6SM SCT025 OVC040

超过4000个机场的气象观测和天气预报(METAR&TAF报告)。

可查询的气象台以黄色和红色小点在地图上表示。

将鼠标移到小点上方,可查看气象台名称。

然后点击查看天气观测和预报。

如需切换地图:点击带黑十字的绿色按钮放大地图;点击带横线的绿色按钮缩小地图;或者点击绿色箭头查看邻近地区的地图。


METAR-TAF: